Terminal Aerodrome Forecast
Issued by NWS Omaha/Valley, NE

Home | Current Version | Previous Version | Text Only | Print | Product List | Glossary On
Versions: 1 2 3 4 5 6 7 8 9 10 11 12 13 14 15 16 17 18 19 20 21 22 23 24 25 26 27 28 29 30 31 32 33 34 35 36 37 38 39 40 41
000
FTUS43 KOAX 191133
TAFOFK
TAF
KOFK 191133Z 1912/2012 33014G22KT P6SM BKN015
      TEMPO 1914/1918 5SM -RA SCT015 OVC050
     FM191800 33020G30KT P6SM SCT025 BKN060
     FM200100 33012KT P6SM SKC=

USA.gov is the U.S. government's official web portal to all federal, state and local government web resources and services.